Alamo, TN

4:55 PM CDT on October 23, 2014 (GMT -0500)
Crossroads Community | Change Station
CLOSE
Current Station
Personal Weather Station
Location: Bells, TN
Elevation: 367 ft
Nearby Weather Stations

Elev 367 ft 35.74 °N, 89.12 °W | Updated 7 minutes ago

Mostly Cloudy
Mostly Cloudy
61.9 °F
Feels Like 61.9 °F
N
3.2
Wind Variable Wind from NW

Today
High -- | Low -- °F
--% Chance of Precip.
Yesterday
High -- | Low -- °F
Precip. -- in
7:10 AM 6:10 PM
Waning Crescent, 0% visible
Pressure 30.13 in
Visibility 10.0 miles
Clouds Clear
Dew Point 48 °F
Humidity 60%
Rainfall 0.00 in
Snow Depth Not available.
UV 2 out of 12
Pollen .60 out of 12
Air Quality Not available.
Flu Activity Sporadic
METAR KMKL 232053Z 02005KT 10SM CLR 18/06 A3012 RMK AO2 SLP201 T01830056 55015

More Conditions Fewer Conditions

Pressure 30.13 in
Visibility 10.0 miles
Clouds Clear
Dew Point 48 °F
Humidity 60%
Rainfall 0.00 in
Snow Depth Not available.
UV 2 out of 12
Pollen .60 out of 12
Air Quality Not available.
Flu Activity Sporadic
METAR KMKL 232053Z 02005KT 10SM CLR 18/06 A3012 RMK AO2 SLP201 T01830056 55015

More Conditions Fewer Conditions

10-Day Weather Forecast

Almanac

Astronomy

Oct. 23, 2014 Rise Set
Actual Time 7:10 AM CDT 6:10 PM CDT
Civil Twilight 6:44 AM CDT 6:36 PM CDT
Nautical Twilight 6:14 AM CDT 7:06 PM CDT
Astronomical Twilight 5:44 AM CDT 7:36 PM CDT
Moon 6:50 AM CDT 6:12 PM CDT
Length of Visible Light 11h 52m
Length of Day
11h 00m
Tomorrow will be 2m 5s shorter.
Waning Crescent, 0% of the Moon is Illuminated
Today
Waning Crescent
Oct 23
New
Oct 30
First Quarter
Nov 6
Full
Nov 14
Last Quarter

Today's Extremes

State Highs State Lows

Community

WunderPhotos

Upload Photos

1,764,381 photos uploaded!

WunderBlogs® & News

Nearby

Snow Depth

Station Depth Elevation
No new snow has been reported.

Earthquake Activity

City Distance Mag. Time & Date
No recent earthquake activity has been reported nearby.
Minimum magnitude displayed is 2.5.

Coastal Water Temperatures

Place Temperature
No Stations Reporting

Nearby Weather Stations